sensor_id;sensor_type;location;lat;lon;timestamp;pressure;altitude;pressure_sealevel;temperature;humidity
62789;BME280;66401;42.016;21.454;2023-04-08T00:00:48;98372.50;;;7.38;55.49
62789;BME280;66401;42.016;21.454;2023-04-08T00:03:14;98368.09;;;6.99;55.95
62789;BME280;66401;42.016;21.454;2023-04-08T00:05:39;98379.03;;;7.26;55.43
62789;BME280;66401;42.016;21.454;2023-04-08T00:08:05;98375.84;;;7.07;56.50
62789;BME280;66401;42.016;21.454;2023-04-08T00:10:31;98374.63;;;6.71;57.97
62789;BME280;66401;42.016;21.454;2023-04-08T00:12:56;98384.78;;;6.97;57.30
62789;BME280;66401;42.016;21.454;2023-04-08T00:15:22;98375.66;;;7.09;55.64
62789;BME280;66401;42.016;21.454;2023-04-08T00:17:47;98377.91;;;7.20;56.25
62789;BME280;66401;42.016;21.454;2023-04-08T00:20:13;98378.31;;;7.32;55.12
62789;BME280;66401;42.016;21.454;2023-04-08T00:22:38;98382.03;;;7.37;54.51
62789;BME280;66401;42.016;21.454;2023-04-08T00:25:04;98378.31;;;7.32;54.82
62789;BME280;66401;42.016;21.454;2023-04-08T00:27:34;98381.28;;;7.21;54.00
62789;BME280;66401;42.016;21.454;2023-04-08T00:29:59;98384.03;;;7.27;52.71
62789;BME280;66401;42.016;21.454;2023-04-08T00:32:26;98393.59;;;7.27;53.43
62789;BME280;66401;42.016;21.454;2023-04-08T00:34:53;98384.84;;;7.20;52.51
62789;BME280;66401;42.016;21.454;2023-04-08T00:37:18;98377.13;;;7.03;53.59
62789;BME280;66401;42.016;21.454;2023-04-08T00:39:45;98400.59;;;7.10;53.40
62789;BME280;66401;42.016;21.454;2023-04-08T00:42:11;98403.03;;;7.03;53.71
62789;BME280;66401;42.016;21.454;2023-04-08T00:44:36;98403.84;;;7.04;53.26
62789;BME280;66401;42.016;21.454;2023-04-08T00:47:27;98402.72;;;6.98;53.51
62789;BME280;66401;42.016;21.454;2023-04-08T00:49:52;98403.72;;;6.89;54.80
62789;BME280;66401;42.016;21.454;2023-04-08T00:52:18;98406.94;;;6.91;54.02
62789;BME280;66401;42.016;21.454;2023-04-08T00:54:43;98397.22;;;6.85;53.53
62789;BME280;66401;42.016;21.454;2023-04-08T00:57:08;98399.88;;;6.77;54.71
62789;BME280;66401;42.016;21.454;2023-04-08T00:59:34;98390.16;;;6.71;55.32
62789;BME280;66401;42.016;21.454;2023-04-08T01:05:06;98389.34;;;6.78;54.58
62789;BME280;66401;42.016;21.454;2023-04-08T01:07:35;98386.22;;;6.91;54.43
62789;BME280;66401;42.016;21.454;2023-04-08T01:12:43;98393.72;;;6.78;54.84
62789;BME280;66401;42.016;21.454;2023-04-08T01:15:13;98382.06;;;6.66;54.81
62789;BME280;66401;42.016;21.454;2023-04-08T01:17:40;98397.13;;;6.62;55.37
62789;BME280;66401;42.016;21.454;2023-04-08T01:20:08;98404.41;;;6.67;55.14
62789;BME280;66401;42.016;21.454;2023-04-08T01:25:36;98395.97;;;6.65;55.32
62789;BME280;66401;42.016;21.454;2023-04-08T01:28:06;98395.66;;;6.59;55.91
62789;BME280;66401;42.016;21.454;2023-04-08T01:30:33;98396.16;;;6.39;55.75
62789;BME280;66401;42.016;21.454;2023-04-08T01:33:01;98405.03;;;6.36;55.88
62789;BME280;66401;42.016;21.454;2023-04-08T01:35:29;98403.09;;;6.46;55.02
62789;BME280;66401;42.016;21.454;2023-04-08T01:37:56;98398.06;;;6.37;56.05
62789;BME280;66401;42.016;21.454;2023-04-08T01:40:22;98401.78;;;6.26;55.64
62789;BME280;66401;42.016;21.454;2023-04-08T01:42:49;98404.72;;;6.31;55.70
62789;BME280;66401;42.016;21.454;2023-04-08T01:45:16;98395.34;;;6.30;54.60
62789;BME280;66401;42.016;21.454;2023-04-08T01:47:44;98403.75;;;6.32;55.38
62789;BME280;66401;42.016;21.454;2023-04-08T01:50:11;98396.16;;;6.22;55.83
62789;BME280;66401;42.016;21.454;2023-04-08T01:52:38;98401.16;;;6.24;55.99
62789;BME280;66401;42.016;21.454;2023-04-08T01:55:04;98397.09;;;6.13;55.35
62789;BME280;66401;42.016;21.454;2023-04-08T01:57:32;98390.00;;;6.15;55.56
62789;BME280;66401;42.016;21.454;2023-04-08T02:00:01;98405.53;;;6.23;55.74
62789;BME280;66401;42.016;21.454;2023-04-08T02:02:27;98403.25;;;6.20;55.11
62789;BME280;66401;42.016;21.454;2023-04-08T02:04:54;98401.94;;;5.92;57.32
62789;BME280;66401;42.016;21.454;2023-04-08T02:07:19;98392.41;;;6.00;55.92
62789;BME280;66401;42.016;21.454;2023-04-08T02:09:45;98406.97;;;6.10;56.97
62789;BME280;66401;42.016;21.454;2023-04-08T02:12:11;98410.81;;;6.06;57.35
62789;BME280;66401;42.016;21.454;2023-04-08T02:14:37;98410.66;;;5.57;57.97
62789;BME280;66401;42.016;21.454;2023-04-08T02:17:14;98399.16;;;5.43;58.19
62789;BME280;66401;42.016;21.454;2023-04-08T02:19:52;98417.94;;;5.53;57.67
62789;BME280;66401;42.016;21.454;2023-04-08T02:22:52;98413.28;;;5.65;57.42
62789;BME280;66401;42.016;21.454;2023-04-08T02:25:16;98407.50;;;5.71;56.50
62789;BME280;66401;42.016;21.454;2023-04-08T02:27:45;98399.78;;;5.79;55.85
62789;BME280;66401;42.016;21.454;2023-04-08T02:30:14;98411.09;;;5.86;56.92
62789;BME280;66401;42.016;21.454;2023-04-08T02:32:40;98404.63;;;5.82;56.55
62789;BME280;66401;42.016;21.454;2023-04-08T02:35:08;98405.38;;;5.66;57.83
62789;BME280;66401;42.016;21.454;2023-04-08T02:37:35;98396.09;;;5.47;57.90
62789;BME280;66401;42.016;21.454;2023-04-08T02:40:00;98404.44;;;5.75;57.98
62789;BME280;66401;42.016;21.454;2023-04-08T02:42:26;98407.22;;;5.06;59.37
62789;BME280;66401;42.016;21.454;2023-04-08T02:44:51;98408.22;;;5.13;58.74
62789;BME280;66401;42.016;21.454;2023-04-08T02:47:17;98410.31;;;5.43;58.02
62789;BME280;66401;42.016;21.454;2023-04-08T02:49:42;98395.16;;;5.57;56.81
62789;BME280;66401;42.016;21.454;2023-04-08T02:52:08;98390.00;;;5.57;56.56
62789;BME280;66401;42.016;21.454;2023-04-08T02:54:33;98391.63;;;5.58;57.45
62789;BME280;66401;42.016;21.454;2023-04-08T02:56:59;98391.81;;;5.64;57.45
62789;BME280;66401;42.016;21.454;2023-04-08T02:59:24;98393.09;;;5.68;56.32
62789;BME280;66401;42.016;21.454;2023-04-08T03:01:50;98395.22;;;5.73;56.07
62789;BME280;66401;42.016;21.454;2023-04-08T03:04:15;98382.75;;;5.68;55.87
62789;BME280;66401;42.016;21.454;2023-04-08T03:06:41;98393.59;;;5.64;55.69
62789;BME280;66401;42.016;21.454;2023-04-08T03:09:06;98394.63;;;5.37;57.42
62789;BME280;66401;42.016;21.454;2023-04-08T03:11:32;98401.84;;;5.25;57.88
62789;BME280;66401;42.016;21.454;2023-04-08T03:13:57;98399.25;;;5.25;57.90
62789;BME280;66401;42.016;21.454;2023-04-08T03:16:23;98410.28;;;5.35;57.96
62789;BME280;66401;42.016;21.454;2023-04-08T03:18:49;98395.88;;;4.73;59.59
62789;BME280;66401;42.016;21.454;2023-04-08T03:21:17;98400.59;;;5.03;60.19
62789;BME280;66401;42.016;21.454;2023-04-08T03:23:43;98404.31;;;4.57;60.90
62789;BME280;66401;42.016;21.454;2023-04-08T03:26:10;98405.56;;;4.97;59.78
62789;BME280;66401;42.016;21.454;2023-04-08T03:28:35;98392.75;;;5.13;59.27
62789;BME280;66401;42.016;21.454;2023-04-08T03:31:04;98403.06;;;5.13;60.66
62789;BME280;66401;42.016;21.454;2023-04-08T03:33:30;98415.06;;;5.30;59.65
62789;BME280;66401;42.016;21.454;2023-04-08T03:35:56;98412.75;;;5.19;60.57
62789;BME280;66401;42.016;21.454;2023-04-08T03:38:21;98414.78;;;5.33;59.39
62789;BME280;66401;42.016;21.454;2023-04-08T03:40:47;98412.00;;;5.27;59.96
62789;BME280;66401;42.016;21.454;2023-04-08T03:43:13;98423.66;;;5.39;59.32
62789;BME280;66401;42.016;21.454;2023-04-08T03:45:38;98404.06;;;5.20;59.89
62789;BME280;66401;42.016;21.454;2023-04-08T03:48:05;98418.56;;;5.13;60.52
62789;BME280;66401;42.016;21.454;2023-04-08T03:50:30;98379.84;;;5.13;60.23
62789;BME280;66401;42.016;21.454;2023-04-08T03:52:56;98416.16;;;5.54;59.88
62789;BME280;66401;42.016;21.454;2023-04-08T03:55:21;98408.38;;;5.45;59.66
62789;BME280;66401;42.016;21.454;2023-04-08T03:57:47;98413.19;;;5.06;61.99
62789;BME280;66401;42.016;21.454;2023-04-08T04:00:13;98409.25;;;4.68;62.50
62789;BME280;66401;42.016;21.454;2023-04-08T04:02:38;98425.13;;;4.55;62.92
62789;BME280;66401;42.016;21.454;2023-04-08T04:05:04;98423.75;;;4.69;63.25
62789;BME280;66401;42.016;21.454;2023-04-08T04:07:30;98428.28;;;4.93;62.54
62789;BME280;66401;42.016;21.454;2023-04-08T04:09:55;98416.63;;;4.89;63.73
62789;BME280;66401;42.016;21.454;2023-04-08T04:12:22;98421.19;;;4.69;63.21
62789;BME280;66401;42.016;21.454;2023-04-08T04:14:47;98429.09;;;4.32;65.26
62789;BME280;66401;42.016;21.454;2023-04-08T04:17:13;98419.88;;;4.47;64.12
62789;BME280;66401;42.016;21.454;2023-04-08T04:19:38;98432.94;;;4.89;63.32
62789;BME280;66401;42.016;21.454;2023-04-08T04:22:04;98427.47;;;4.67;63.48
62789;BME280;66401;42.016;21.454;2023-04-08T04:24:29;98433.03;;;4.80;63.75
62789;BME280;66401;42.016;21.454;2023-04-08T04:26:54;98431.47;;;4.87;63.05
62789;BME280;66401;42.016;21.454;2023-04-08T04:29:20;98416.47;;;4.91;61.68
62789;BME280;66401;42.016;21.454;2023-04-08T04:31:46;98440.69;;;5.15;62.92
62789;BME280;66401;42.016;21.454;2023-04-08T04:34:11;98435.44;;;4.81;63.68
62789;BME280;66401;42.016;21.454;2023-04-08T04:36:37;98403.34;;;4.76;62.14
62789;BME280;66401;42.016;21.454;2023-04-08T04:39:02;98437.19;;;4.99;61.95
62789;BME280;66401;42.016;21.454;2023-04-08T04:41:27;98438.16;;;5.24;61.66
62789;BME280;66401;42.016;21.454;2023-04-08T04:43:53;98434.84;;;4.87;61.62
62789;BME280;66401;42.016;21.454;2023-04-08T04:46:18;98432.13;;;5.15;61.55
62789;BME280;66401;42.016;21.454;2023-04-08T04:48:44;98430.47;;;5.06;60.70
62789;BME280;66401;42.016;21.454;2023-04-08T04:51:10;98437.19;;;5.25;61.26
62789;BME280;66401;42.016;21.454;2023-04-08T04:53:35;98440.78;;;5.40;60.20
62789;BME280;66401;42.016;21.454;2023-04-08T04:56:01;98441.75;;;5.31;61.04
62789;BME280;66401;42.016;21.454;2023-04-08T04:58:26;98437.56;;;5.38;62.24
62789;BME280;66401;42.016;21.454;2023-04-08T05:00:52;98451.91;;;5.06;62.36
62789;BME280;66401;42.016;21.454;2023-04-08T05:03:18;98441.13;;;5.11;62.91
62789;BME280;66401;42.016;21.454;2023-04-08T05:05:43;98452.25;;;5.37;62.33
62789;BME280;66401;42.016;21.454;2023-04-08T05:08:09;98460.41;;;5.59;60.66
62789;BME280;66401;42.016;21.454;2023-04-08T05:10:34;98460.13;;;5.62;60.99
62789;BME280;66401;42.016;21.454;2023-04-08T05:12:59;98458.63;;;5.93;60.19
62789;BME280;66401;42.016;21.454;2023-04-08T05:15:25;98458.31;;;5.96;60.24
62789;BME280;66401;42.016;21.454;2023-04-08T05:17:50;98457.50;;;5.54;61.72
62789;BME280;66401;42.016;21.454;2023-04-08T05:20:16;98460.63;;;5.39;62.41
62789;BME280;66401;42.016;21.454;2023-04-08T05:22:41;98458.66;;;6.01;59.53
62789;BME280;66401;42.016;21.454;2023-04-08T05:25:10;98454.59;;;5.91;59.17
62789;BME280;66401;42.016;21.454;2023-04-08T05:27:36;98437.69;;;6.13;58.55
62789;BME280;66401;42.016;21.454;2023-04-08T05:30:01;98453.72;;;5.82;59.30
62789;BME280;66401;42.016;21.454;2023-04-08T05:32:28;98456.94;;;6.35;57.87
62789;BME280;66401;42.016;21.454;2023-04-08T05:34:54;98456.63;;;6.29;57.53
62789;BME280;66401;42.016;21.454;2023-04-08T05:37:19;98463.91;;;6.42;57.30
62789;BME280;66401;42.016;21.454;2023-04-08T05:39:44;98463.25;;;6.97;55.66
62789;BME280;66401;42.016;21.454;2023-04-08T05:42:10;98460.25;;;7.33;54.31
62789;BME280;66401;42.016;21.454;2023-04-08T05:44:38;98465.16;;;7.28;54.35
62789;BME280;66401;42.016;21.454;2023-04-08T05:47:06;98464.56;;;7.65;53.48
62789;BME280;66401;42.016;21.454;2023-04-08T05:49:32;98476.09;;;7.93;53.65
62789;BME280;66401;42.016;21.454;2023-04-08T05:51:58;98472.31;;;7.09;55.15
62789;BME280;66401;42.016;21.454;2023-04-08T05:54:23;98475.50;;;7.28;54.61
62789;BME280;66401;42.016;21.454;2023-04-08T05:56:49;98471.84;;;8.31;52.65
62789;BME280;66401;42.016;21.454;2023-04-08T05:59:14;98482.53;;;8.97;50.20
62789;BME280;66401;42.016;21.454;2023-04-08T06:01:40;98480.31;;;9.46;48.75
62789;BME280;66401;42.016;21.454;2023-04-08T06:04:05;98476.66;;;8.12;51.18
62789;BME280;66401;42.016;21.454;2023-04-08T06:06:31;98481.16;;;9.09;50.12
62789;BME280;66401;42.016;21.454;2023-04-08T06:08:56;98473.81;;;9.42;48.82
62789;BME280;66401;42.016;21.454;2023-04-08T06:11:21;98477.94;;;9.52;47.63
62789;BME280;66401;42.016;21.454;2023-04-08T06:13:47;98477.09;;;9.07;48.68
62789;BME280;66401;42.016;21.454;2023-04-08T06:16:15;98473.56;;;9.37;48.86
62789;BME280;66401;42.016;21.454;2023-04-08T06:18:42;98455.34;;;9.08;49.90
62789;BME280;66401;42.016;21.454;2023-04-08T06:21:07;98453.94;;;9.20;49.55
62789;BME280;66401;42.016;21.454;2023-04-08T06:23:34;98464.13;;;9.22;49.92
62789;BME280;66401;42.016;21.454;2023-04-08T06:25:59;98463.97;;;9.08;49.46
62789;BME280;66401;42.016;21.454;2023-04-08T06:28:25;98469.66;;;9.04;49.76
62789;BME280;66401;42.016;21.454;2023-04-08T06:30:50;98462.72;;;9.19;49.98
62789;BME280;66401;42.016;21.454;2023-04-08T06:33:16;98459.38;;;9.55;48.81
62789;BME280;66401;42.016;21.454;2023-04-08T06:35:41;98452.47;;;9.62;48.36
62789;BME280;66401;42.016;21.454;2023-04-08T06:38:07;98456.97;;;9.09;49.04
62789;BME280;66401;42.016;21.454;2023-04-08T06:40:32;98457.84;;;9.16;50.46
62789;BME280;66401;42.016;21.454;2023-04-08T06:42:58;98452.13;;;9.35;48.17
62789;BME280;66401;42.016;21.454;2023-04-08T06:45:23;98446.94;;;9.35;48.16
62789;BME280;66401;42.016;21.454;2023-04-08T06:47:49;98439.22;;;9.12;48.20
62789;BME280;66401;42.016;21.454;2023-04-08T06:50:14;98462.69;;;8.67;49.40
62789;BME280;66401;42.016;21.454;2023-04-08T06:52:40;98457.78;;;9.09;47.72
62789;BME280;66401;42.016;21.454;2023-04-08T06:55:06;98450.78;;;8.26;48.99
62789;BME280;66401;42.016;21.454;2023-04-08T06:57:31;98454.97;;;8.36;49.00
62789;BME280;66401;42.016;21.454;2023-04-08T06:59:57;98450.22;;;8.62;49.05
62789;BME280;66401;42.016;21.454;2023-04-08T07:02:24;98453.25;;;8.51;51.30
62789;BME280;66401;42.016;21.454;2023-04-08T07:04:50;98454.88;;;9.04;50.47
62789;BME280;66401;42.016;21.454;2023-04-08T07:07:15;98445.13;;;9.21;48.46
62789;BME280;66401;42.016;21.454;2023-04-08T07:09:41;98453.47;;;9.61;48.87
62789;BME280;66401;42.016;21.454;2023-04-08T07:12:10;98459.38;;;9.55;47.61
62789;BME280;66401;42.016;21.454;2023-04-08T07:14:36;98454.63;;;9.73;47.50
62789;BME280;66401;42.016;21.454;2023-04-08T07:17:01;98456.44;;;9.58;48.01
62789;BME280;66401;42.016;21.454;2023-04-08T07:19:26;98465.75;;;9.08;48.02
62789;BME280;66401;42.016;21.454;2023-04-08T07:21:52;98473.88;;;8.67;50.57
62789;BME280;66401;42.016;21.454;2023-04-08T07:24:18;98470.72;;;8.95;49.99
62789;BME280;66401;42.016;21.454;2023-04-08T07:26:44;98469.25;;;9.59;49.41
62789;BME280;66401;42.016;21.454;2023-04-08T07:29:09;98469.97;;;9.09;50.23
62789;BME280;66401;42.016;21.454;2023-04-08T07:31:35;98461.00;;;9.26;50.27
62789;BME280;66401;42.016;21.454;2023-04-08T07:34:00;98473.19;;;9.11;50.89
62789;BME280;66401;42.016;21.454;2023-04-08T07:36:26;98471.47;;;9.03;50.48
62789;BME280;66401;42.016;21.454;2023-04-08T07:38:52;98470.78;;;9.54;49.85
62789;BME280;66401;42.016;21.454;2023-04-08T07:41:18;98463.97;;;9.53;49.49
62789;BME280;66401;42.016;21.454;2023-04-08T07:43:44;98467.09;;;9.63;50.08
62789;BME280;66401;42.016;21.454;2023-04-08T07:46:09;98466.63;;;9.74;49.77
62789;BME280;66401;42.016;21.454;2023-04-08T07:48:35;98466.78;;;10.38;48.45
62789;BME280;66401;42.016;21.454;2023-04-08T07:51:08;98450.53;;;10.79;48.51
62789;BME280;66401;42.016;21.454;2023-04-08T07:53:33;98465.69;;;10.97;46.90
62789;BME280;66401;42.016;21.454;2023-04-08T07:55:59;98459.19;;;10.86;48.01
62789;BME280;66401;42.016;21.454;2023-04-08T07:58:25;98467.69;;;11.23;48.10
62789;BME280;66401;42.016;21.454;2023-04-08T08:00:51;98465.78;;;11.38;46.19
62789;BME280;66401;42.016;21.454;2023-04-08T08:03:16;98468.84;;;11.48;45.41
62789;BME280;66401;42.016;21.454;2023-04-08T08:05:42;98460.25;;;11.54;46.62
62789;BME280;66401;42.016;21.454;2023-04-08T08:08:07;98470.66;;;11.82;46.59
62789;BME280;66401;42.016;21.454;2023-04-08T08:10:36;98469.31;;;11.58;45.37
62789;BME280;66401;42.016;21.454;2023-04-08T08:13:03;98466.09;;;11.97;45.24
62789;BME280;66401;42.016;21.454;2023-04-08T08:15:28;98459.50;;;12.08;45.41
62789;BME280;66401;42.016;21.454;2023-04-08T08:17:54;98467.59;;;11.79;44.51
62789;BME280;66401;42.016;21.454;2023-04-08T08:20:19;98460.56;;;11.38;45.28
62789;BME280;66401;42.016;21.454;2023-04-08T08:22:44;98443.94;;;11.39;44.81
62789;BME280;66401;42.016;21.454;2023-04-08T08:25:10;98460.31;;;11.67;46.57
62789;BME280;66401;42.016;21.454;2023-04-08T08:27:35;98465.13;;;11.64;45.63
62789;BME280;66401;42.016;21.454;2023-04-08T08:30:02;98448.56;;;11.85;43.68
62789;BME280;66401;42.016;21.454;2023-04-08T08:32:28;98457.94;;;11.72;44.73
62789;BME280;66401;42.016;21.454;2023-04-08T08:34:54;98432.25;;;11.69;45.77
62789;BME280;66401;42.016;21.454;2023-04-08T08:37:19;98457.00;;;12.48;42.60
62789;BME280;66401;42.016;21.454;2023-04-08T08:39:45;98460.84;;;12.65;42.12
62789;BME280;66401;42.016;21.454;2023-04-08T08:42:21;98454.19;;;12.96;43.38
62789;BME280;66401;42.016;21.454;2023-04-08T08:44:47;98460.41;;;13.21;40.99
62789;BME280;66401;42.016;21.454;2023-04-08T08:47:13;98451.56;;;13.35;40.25
62789;BME280;66401;42.016;21.454;2023-04-08T08:49:38;98456.16;;;13.46;40.37
62789;BME280;66401;42.016;21.454;2023-04-08T08:52:04;98443.72;;;12.69;41.55
62789;BME280;66401;42.016;21.454;2023-04-08T08:54:31;98438.69;;;12.61;39.13
62789;BME280;66401;42.016;21.454;2023-04-08T08:56:56;98439.66;;;13.39;39.79
62789;BME280;66401;42.016;21.454;2023-04-08T08:59:22;98444.00;;;13.72;37.65
62789;BME280;66401;42.016;21.454;2023-04-08T09:01:47;98438.16;;;14.15;38.56
62789;BME280;66401;42.016;21.454;2023-04-08T09:04:15;98431.75;;;14.11;37.35
62789;BME280;66401;42.016;21.454;2023-04-08T09:06:41;98437.72;;;14.18;39.66
62789;BME280;66401;42.016;21.454;2023-04-08T09:09:07;98425.84;;;14.53;39.24
62789;BME280;66401;42.016;21.454;2023-04-08T09:11:40;98424.88;;;13.71;40.63
62789;BME280;66401;42.016;21.454;2023-04-08T09:14:24;98425.88;;;14.09;39.06
62789;BME280;66401;42.016;21.454;2023-04-08T09:16:51;98437.00;;;14.36;36.86
62789;BME280;66401;42.016;21.454;2023-04-08T09:19:17;98428.19;;;14.30;37.67
62789;BME280;66401;42.016;21.454;2023-04-08T09:21:43;98420.94;;;14.64;38.16
62789;BME280;66401;42.016;21.454;2023-04-08T09:24:26;98419.59;;;14.79;37.41
62789;BME280;66401;42.016;21.454;2023-04-08T09:26:52;98424.03;;;13.78;39.09
62789;BME280;66401;42.016;21.454;2023-04-08T09:29:17;98403.97;;;14.03;40.47
62789;BME280;66401;42.016;21.454;2023-04-08T09:31:42;98407.13;;;14.50;37.70
62789;BME280;66401;42.016;21.454;2023-04-08T09:34:16;98407.16;;;14.93;37.09
62789;BME280;66401;42.016;21.454;2023-04-08T09:36:43;98393.31;;;15.04;36.81
62789;BME280;66401;42.016;21.454;2023-04-08T09:39:10;98407.03;;;14.88;36.04
62789;BME280;66401;42.016;21.454;2023-04-08T09:41:37;98405.19;;;14.88;36.14
62789;BME280;66401;42.016;21.454;2023-04-08T09:44:05;98394.72;;;14.64;37.28
62789;BME280;66401;42.016;21.454;2023-04-08T09:46:55;98403.81;;;14.61;37.14
62789;BME280;66401;42.016;21.454;2023-04-08T09:49:31;98407.06;;;14.25;37.43
62789;BME280;66401;42.016;21.454;2023-04-08T09:52:01;98397.28;;;14.70;36.79
62789;BME280;66401;42.016;21.454;2023-04-08T09:54:40;98390.31;;;15.26;35.19
62789;BME280;66401;42.016;21.454;2023-04-08T09:57:13;98399.06;;;14.51;35.23
62789;BME280;66401;42.016;21.454;2023-04-08T09:59:51;98381.22;;;14.85;36.82
62789;BME280;66401;42.016;21.454;2023-04-08T10:02:27;98387.50;;;15.02;34.82
62789;BME280;66401;42.016;21.454;2023-04-08T10:04:54;98393.56;;;16.06;32.98
62789;BME280;66401;42.016;21.454;2023-04-08T10:07:23;98383.28;;;17.16;32.26
62789;BME280;66401;42.016;21.454;2023-04-08T10:09:49;98389.16;;;18.44;30.25
62789;BME280;66401;42.016;21.454;2023-04-08T10:12:14;98377.69;;;17.77;31.21
62789;BME280;66401;42.016;21.454;2023-04-08T10:14:40;98386.59;;;19.60;30.09
62789;BME280;66401;42.016;21.454;2023-04-08T10:17:27;98374.19;;;19.00;28.35
62789;BME280;66401;42.016;21.454;2023-04-08T10:19:53;98373.03;;;20.33;28.36
62789;BME280;66401;42.016;21.454;2023-04-08T10:27:42;98366.25;;;19.61;28.16
62789;BME280;66401;42.016;21.454;2023-04-08T10:32:55;98367.31;;;16.95;31.65
62789;BME280;66401;42.016;21.454;2023-04-08T10:35:34;98354.06;;;17.41;33.47
62789;BME280;66401;42.016;21.454;2023-04-08T10:38:00;98353.00;;;18.62;31.42
62789;BME280;66401;42.016;21.454;2023-04-08T10:40:26;98352.56;;;17.57;30.67
62789;BME280;66401;42.016;21.454;2023-04-08T10:42:55;98358.97;;;17.50;31.92
62789;BME280;66401;42.016;21.454;2023-04-08T10:45:21;98347.09;;;17.35;31.47
62789;BME280;66401;42.016;21.454;2023-04-08T10:47:47;98343.25;;;16.44;33.99
62789;BME280;66401;42.016;21.454;2023-04-08T10:50:14;98334.97;;;17.34;33.86
62789;BME280;66401;42.016;21.454;2023-04-08T10:52:53;98332.00;;;17.71;34.11
62789;BME280;66401;42.016;21.454;2023-04-08T10:55:25;98325.94;;;17.70;35.23
62789;BME280;66401;42.016;21.454;2023-04-08T10:57:54;98326.69;;;16.67;34.80
62789;BME280;66401;42.016;21.454;2023-04-08T11:00:45;98316.78;;;15.44;36.40
62789;BME280;66401;42.016;21.454;2023-04-08T11:03:11;98296.41;;;15.28;36.90
62789;BME280;66401;42.016;21.454;2023-04-08T11:05:37;98303.75;;;15.86;35.55
62789;BME280;66401;42.016;21.454;2023-04-08T11:08:05;98306.69;;;16.78;34.77
62789;BME280;66401;42.016;21.454;2023-04-08T11:10:36;98310.72;;;16.80;35.60
62789;BME280;66401;42.016;21.454;2023-04-08T11:13:02;98316.69;;;16.11;34.82
62789;BME280;66401;42.016;21.454;2023-04-08T11:15:30;98302.59;;;16.82;32.98
62789;BME280;66401;42.016;21.454;2023-04-08T11:17:56;98307.50;;;16.31;34.84
62789;BME280;66401;42.016;21.454;2023-04-08T11:20:22;98306.84;;;15.83;33.02
62789;BME280;66401;42.016;21.454;2023-04-08T11:22:49;98291.69;;;15.66;34.48
62789;BME280;66401;42.016;21.454;2023-04-08T11:25:14;98278.53;;;16.20;34.59
62789;BME280;66401;42.016;21.454;2023-04-08T11:27:40;98306.13;;;16.41;35.20
62789;BME280;66401;42.016;21.454;2023-04-08T11:30:06;98293.72;;;15.94;34.69
62789;BME280;66401;42.016;21.454;2023-04-08T11:32:33;98271.81;;;16.36;34.36
62789;BME280;66401;42.016;21.454;2023-04-08T11:35:00;98302.56;;;15.82;34.48
62789;BME280;66401;42.016;21.454;2023-04-08T11:37:44;98275.69;;;15.38;35.50
62789;BME280;66401;42.016;21.454;2023-04-08T11:40:12;98274.78;;;15.44;34.28
62789;BME280;66401;42.016;21.454;2023-04-08T11:42:38;98274.78;;;16.04;33.70
62789;BME280;66401;42.016;21.454;2023-04-08T11:45:11;98267.38;;;16.71;33.61
62789;BME280;66401;42.016;21.454;2023-04-08T11:47:38;98252.41;;;16.60;31.59
62789;BME280;66401;42.016;21.454;2023-04-08T11:50:05;98268.34;;;17.05;32.84
62789;BME280;66401;42.016;21.454;2023-04-08T11:52:47;98263.22;;;17.27;30.16
62789;BME280;66401;42.016;21.454;2023-04-08T11:55:37;98247.34;;;17.22;26.85
62789;BME280;66401;42.016;21.454;2023-04-08T11:58:04;98250.78;;;16.59;30.05
62789;BME280;66401;42.016;21.454;2023-04-08T12:00:30;98257.53;;;16.43;33.13
62789;BME280;66401;42.016;21.454;2023-04-08T12:02:57;98246.00;;;16.33;33.23
62789;BME280;66401;42.016;21.454;2023-04-08T12:05:23;98226.47;;;17.04;31.01
62789;BME280;66401;42.016;21.454;2023-04-08T12:07:48;98249.63;;;16.78;31.25
62789;BME280;66401;42.016;21.454;2023-04-08T12:10:14;98250.66;;;16.66;34.51
62789;BME280;66401;42.016;21.454;2023-04-08T12:12:39;98239.78;;;16.85;33.11
62789;BME280;66401;42.016;21.454;2023-04-08T12:15:06;98241.63;;;16.50;33.72
62789;BME280;66401;42.016;21.454;2023-04-08T12:17:33;98241.19;;;16.53;33.22
62789;BME280;66401;42.016;21.454;2023-04-08T12:19:58;98212.56;;;16.92;32.76
62789;BME280;66401;42.016;21.454;2023-04-08T12:22:24;98241.88;;;16.37;33.37
62789;BME280;66401;42.016;21.454;2023-04-08T12:24:49;98226.09;;;16.48;32.94
62789;BME280;66401;42.016;21.454;2023-04-08T12:27:15;98223.03;;;16.28;35.29
62789;BME280;66401;42.016;21.454;2023-04-08T12:29:40;98218.09;;;16.55;33.94
62789;BME280;66401;42.016;21.454;2023-04-08T12:32:06;98211.97;;;17.01;34.32
62789;BME280;66401;42.016;21.454;2023-04-08T12:34:32;98216.22;;;17.76;35.63
62789;BME280;66401;42.016;21.454;2023-04-08T12:36:57;98207.44;;;17.87;31.87
62789;BME280;66401;42.016;21.454;2023-04-08T12:39:23;98215.00;;;17.84;33.31
62789;BME280;66401;42.016;21.454;2023-04-08T12:41:49;98199.28;;;17.43;32.79
62789;BME280;66401;42.016;21.454;2023-04-08T12:44:14;98213.97;;;17.39;32.32
62789;BME280;66401;42.016;21.454;2023-04-08T12:46:40;98212.16;;;16.71;33.66
62789;BME280;66401;42.016;21.454;2023-04-08T12:49:06;98202.50;;;16.88;33.13
62789;BME280;66401;42.016;21.454;2023-04-08T12:51:31;98199.41;;;17.20;32.99
62789;BME280;66401;42.016;21.454;2023-04-08T12:53:57;98200.81;;;17.11;31.88
62789;BME280;66401;42.016;21.454;2023-04-08T12:56:24;98182.88;;;16.56;34.35
62789;BME280;66401;42.016;21.454;2023-04-08T12:58:50;98166.69;;;16.36;33.37
62789;BME280;66401;42.016;21.454;2023-04-08T13:01:15;98179.06;;;15.46;33.39
62789;BME280;66401;42.016;21.454;2023-04-08T13:03:41;98174.59;;;15.77;33.00
62789;BME280;66401;42.016;21.454;2023-04-08T13:06:07;98184.16;;;16.30;33.01
62789;BME280;66401;42.016;21.454;2023-04-08T13:08:32;98177.88;;;16.43;31.61
62789;BME280;66401;42.016;21.454;2023-04-08T13:10:58;98173.03;;;16.63;32.67